createdAt,value
2023-04-13T00:00:48.617Z,68181.22
2023-04-13T00:03:17.779Z,68182.53
2023-04-13T00:05:46.269Z,68181.97
2023-04-13T00:08:13.705Z,68181.41
2023-04-13T00:10:41.849Z,68185.56
2023-04-13T00:13:10.832Z,68183.84
2023-04-13T00:15:43.156Z,68182.34
2023-04-13T00:18:10.897Z,68177.06
2023-04-13T00:20:39.067Z,68178.19
2023-04-13T00:23:06.110Z,68163.84
2023-04-13T00:25:33.084Z,68163.28
2023-04-13T00:28:03.302Z,68158.78
2023-04-13T00:30:30.345Z,68165.38
2023-04-13T00:32:57.351Z,68164.44
2023-04-13T00:35:27.825Z,68160.25
2023-04-13T00:37:54.856Z,68162.16
2023-04-13T00:40:24.595Z,68157.06
2023-04-13T00:42:52.799Z,68150.81
2023-04-13T00:45:20.008Z,68155.75
2023-04-13T00:47:48.701Z,68153.84
2023-04-13T00:50:21.009Z,68155.56
2023-04-13T00:52:49.056Z,68164.44
2023-04-13T00:55:21.047Z,68169.50
2023-04-13T00:57:50.394Z,68171.97
2023-04-13T01:00:18.518Z,68182.34
2023-04-13T01:02:45.957Z,68161.41
2023-04-13T01:05:15.553Z,68144.81
2023-04-13T01:07:48.727Z,68146.50
2023-04-13T01:10:18.806Z,68137.63
2023-04-13T01:13:04.723Z,68128.19
2023-04-13T01:15:37.166Z,68129.69
2023-04-13T01:18:05.215Z,68131.41
2023-04-13T01:20:33.364Z,68124.41
2023-04-13T01:23:03.743Z,68117.03
2023-04-13T01:25:57.748Z,68111.38
2023-04-13T01:28:25.414Z,68112.13
2023-04-13T01:30:53.833Z,68108.72
2023-04-13T01:33:22.615Z,68106.84
2023-04-13T01:35:50.434Z,68097.22
2023-04-13T01:38:24.543Z,68093.09
2023-04-13T01:40:53.574Z,68100.25
2023-04-13T01:43:21.607Z,68098.75
2023-04-13T01:46:00.963Z,68101.56
2023-04-13T01:48:34.341Z,68098.00
2023-04-13T01:51:10.777Z,68095.16
2023-04-13T01:53:51.509Z,68096.28
2023-04-13T01:56:20.051Z,68086.84
2023-04-13T01:58:50.092Z,68076.69
2023-04-13T02:01:18.006Z,68084.22
2023-04-13T02:03:45.359Z,68081.97
2023-04-13T02:06:12.647Z,68077.81
2023-04-13T02:08:42.143Z,68073.66
2023-04-13T02:11:10.167Z,68071.94
2023-04-13T02:13:37.756Z,68063.66
2023-04-13T02:16:09.375Z,68056.66
2023-04-13T02:18:36.642Z,68050.44
2023-04-13T02:21:08.582Z,68041.97
2023-04-13T02:23:36.331Z,68034.44
2023-04-13T02:26:04.531Z,68036.31
2023-04-13T02:28:31.612Z,68028.59
2023-04-13T02:31:03.399Z,68027.25
2023-04-13T02:33:31.577Z,68022.38
2023-04-13T02:35:59.116Z,68018.97
2023-04-13T02:38:28.195Z,68018.41
2023-04-13T02:41:01.290Z,68021.03
2023-04-13T02:43:33.309Z,68024.25
2023-04-13T02:46:01.753Z,68027.47
2023-04-13T02:48:34.731Z,68024.44
2023-04-13T02:51:05.334Z,68022.94
2023-04-13T02:53:36.365Z,68018.97
2023-04-13T02:56:06.782Z,68012.94
2023-04-13T02:58:34.701Z,68016.53
2023-04-13T03:01:05.456Z,68024.06
2023-04-13T03:03:33.355Z,68023.69
2023-04-13T03:06:01.658Z,68025.00
2023-04-13T03:08:51.497Z,68021.03
2023-04-13T03:11:23.488Z,68009.94
2023-04-13T03:14:21.187Z,68011.63
2023-04-13T03:16:52.575Z,68010.28
2023-04-13T03:19:23.342Z,67998.25
2023-04-13T03:21:50.428Z,68001.81
2023-04-13T03:24:22.440Z,67992.59
2023-04-13T03:26:49.831Z,67990.13
2023-04-13T03:32:08.610Z,67999.00
2023-04-13T03:34:43.899Z,67997.47
2023-04-13T03:37:12.779Z,68002.38
2023-04-13T03:39:40.850Z,68000.69
2023-04-13T03:42:11.254Z,67992.19
2023-04-13T03:44:43.548Z,67986.56
2023-04-13T03:47:10.578Z,67983.16
2023-04-13T03:49:38.181Z,67979.78
2023-04-13T03:52:05.130Z,67978.81
2023-04-13T03:54:38.118Z,67979.97
2023-04-13T03:57:05.215Z,67980.88
2023-04-13T03:59:34.186Z,67973.38
2023-04-13T04:02:03.047Z,67968.28
2023-04-13T04:04:32.102Z,67985.59
2023-04-13T04:06:59.463Z,67980.53
2023-04-13T04:09:27.458Z,67980.34
2023-04-13T04:11:57.106Z,67975.44
2023-04-13T04:14:38.169Z,67976.00
2023-04-13T04:17:15.306Z,67975.81
2023-04-13T04:19:43.228Z,67971.50
2023-04-13T04:22:10.302Z,67974.13
2023-04-13T04:24:42.516Z,67981.44
2023-04-13T04:27:09.770Z,67979.00
2023-04-13T04:29:36.775Z,67967.31
2023-04-13T04:32:18.491Z,67956.97
2023-04-13T04:34:47.024Z,67962.97
2023-04-13T04:37:23.372Z,67951.34
2023-04-13T04:40:02.793Z,67956.00
2023-04-13T04:42:30.963Z,67956.94
2023-04-13T04:45:01.540Z,67952.63
2023-04-13T04:47:30.136Z,67951.50
2023-04-13T04:50:21.143Z,67952.63
2023-04-13T04:52:54.350Z,67953.56
2023-04-13T04:55:24.034Z,67940.97
2023-04-13T04:57:51.673Z,67938.69
2023-04-13T05:00:21.893Z,67941.13
2023-04-13T05:03:01.753Z,67941.69
2023-04-13T05:05:30.676Z,67949.63
2023-04-13T05:08:01.281Z,67957.16
2023-04-13T05:10:29.668Z,67974.47
2023-04-13T05:12:59.235Z,67975.25
2023-04-13T05:15:26.896Z,67972.22
2023-04-13T05:17:56.470Z,67969.59
2023-04-13T05:20:24.933Z,67967.88
2023-04-13T05:22:59.499Z,67966.94
2023-04-13T05:25:27.275Z,67980.34
2023-04-13T05:27:56.294Z,67986.00
2023-04-13T05:30:25.176Z,67977.16
2023-04-13T05:32:52.542Z,67971.84
2023-04-13T05:35:19.617Z,67963.00
2023-04-13T05:37:46.805Z,67965.81
2023-04-13T05:40:19.198Z,67968.84
2023-04-13T05:42:46.747Z,67973.19
2023-04-13T05:45:18.255Z,67953.00
2023-04-13T05:48:01.411Z,67957.91
2023-04-13T05:50:29.465Z,67967.72
2023-04-13T05:52:59.458Z,67967.72
2023-04-13T05:55:32.563Z,67969.59
2023-04-13T05:58:05.789Z,67966.75
2023-04-13T06:00:38.991Z,67964.50
2023-04-13T06:03:17.144Z,67956.22
2023-04-13T06:05:44.972Z,67953.38
2023-04-13T06:08:21.793Z,67950.38
2023-04-13T06:13:37.242Z,67944.16
2023-04-13T06:16:04.284Z,67946.97
2023-04-13T06:18:31.214Z,67941.88
2023-04-13T06:20:58.874Z,67947.34
2023-04-13T06:23:25.921Z,67945.28
2023-04-13T06:25:57.775Z,67945.84
2023-04-13T06:28:39.772Z,67944.53
2023-04-13T06:31:07.488Z,67944.16
2023-04-13T06:33:40.693Z,67944.72
2023-04-13T06:36:08.589Z,67944.34
2023-04-13T06:38:36.597Z,67952.63
2023-04-13T06:41:08.525Z,67942.28
2023-04-13T06:43:39.141Z,67965.06
2023-04-13T06:46:31.901Z,67943.03
2023-04-13T06:49:11.262Z,67942.06
2023-04-13T06:51:40.356Z,67940.97
2023-04-13T06:54:07.427Z,67945.28
2023-04-13T06:56:40.652Z,67955.47
2023-04-13T06:59:08.054Z,67961.47
2023-04-13T07:01:35.505Z,67964.13
2023-04-13T07:04:03.039Z,67984.09
2023-04-13T07:06:32.365Z,67983.34
2023-04-13T07:09:02.997Z,67986.56
2023-04-13T07:11:33.171Z,67990.72
2023-04-13T07:14:04.897Z,68001.06
2023-04-13T07:16:31.901Z,68019.72
2023-04-13T07:19:01.023Z,68032.75
2023-04-13T07:21:35.286Z,68049.91
2023-04-13T07:24:07.799Z,68057.44
2023-04-13T07:26:39.330Z,68081.00
2023-04-13T07:29:13.204Z,68104.59
2023-04-13T07:31:43.729Z,68063.66
2023-04-13T07:34:12.301Z,68049.72
2023-04-13T07:36:43.776Z,68042.34
2023-04-13T07:39:16.758Z,68023.50
2023-04-13T07:41:49.585Z,68019.56
2023-04-13T07:44:22.574Z,68031.06
2023-04-13T07:46:50.192Z,68038.75
2023-04-13T07:49:18.001Z,68046.50
2023-04-13T07:51:52.130Z,68045.00
2023-04-13T07:54:19.687Z,68069.91
2023-04-13T07:56:49.649Z,68100.44
2023-04-13T07:59:19.272Z,68119.50
2023-04-13T08:01:46.376Z,68141.41
2023-04-13T08:04:13.576Z,68169.72
2023-04-13T08:06:42.351Z,68189.53
2023-04-13T08:09:09.572Z,68229.53
2023-04-13T08:11:37.007Z,68225.00
2023-04-13T08:14:09.727Z,68209.16
2023-04-13T08:16:38.160Z,68178.56
2023-04-13T08:19:09.327Z,68179.50
2023-04-13T08:21:41.759Z,68214.81
2023-04-13T08:24:10.185Z,68196.69
2023-04-13T08:26:37.162Z,68145.38
2023-04-13T08:29:04.176Z,68154.81
2023-04-13T08:31:35.229Z,68152.13
2023-04-13T08:34:05.920Z,68176.69
2023-04-13T08:36:34.100Z,68214.44
2023-04-13T08:39:06.227Z,68225.56
2023-04-13T08:41:57.185Z,68216.31
2023-04-13T08:44:28.302Z,68238.06
2023-04-13T08:46:58.336Z,68223.69
2023-04-13T08:49:32.627Z,68179.13
2023-04-13T08:52:09.984Z,68202.91
2023-04-13T08:54:39.697Z,68244.47
2023-04-13T08:57:14.073Z,68231.25
2023-04-13T08:59:49.479Z,68276.00
2023-04-13T09:02:26.555Z,68286.94
2023-04-13T09:05:00.114Z,68287.16
2023-04-13T09:07:32.607Z,68316.06
2023-04-13T09:10:06.280Z,68322.84
2023-04-13T09:12:33.692Z,68299.81
2023-04-13T09:15:01.879Z,68313.41
2023-04-13T09:17:33.884Z,68296.03
2023-04-13T09:20:15.008Z,68242.38
2023-04-13T09:22:43.244Z,68216.88
2023-04-13T09:25:22.998Z,68195.56
2023-04-13T09:27:52.127Z,68182.16
2023-04-13T09:30:25.283Z,68182.91
2023-04-13T09:33:08.507Z,68203.88
2023-04-13T09:35:39.230Z,68225.94
2023-04-13T09:38:08.412Z,68270.72
2023-04-13T09:40:38.462Z,68303.56
2023-04-13T09:43:09.699Z,68287.53
2023-04-13T09:45:39.878Z,68307.53
2023-04-13T09:48:18.609Z,68289.59
2023-04-13T09:50:45.632Z,68289.03
2023-04-13T09:53:15.096Z,68244.06
2023-04-13T09:55:42.194Z,68185.94
2023-04-13T09:58:12.545Z,68191.41
2023-04-13T10:00:40.766Z,68180.06
2023-04-13T10:03:15.417Z,68204.44
2023-04-13T10:05:58.857Z,68229.38
2023-04-13T10:08:37.609Z,68250.69
2023-04-13T10:11:12.308Z,68270.72
2023-04-13T10:13:51.598Z,68292.44
2023-04-13T10:16:24.760Z,68341.56
2023-04-13T10:19:03.534Z,68361.41
2023-04-13T10:21:35.766Z,68407.53
2023-04-13T10:26:38.267Z,68458.22
2023-04-13T10:29:05.442Z,68432.69
2023-04-13T10:31:39.250Z,68464.63
2023-04-13T10:34:07.045Z,68447.63
2023-04-13T10:36:38.485Z,68485.06
2023-04-13T10:39:05.517Z,68491.50
2023-04-13T10:41:32.700Z,68484.69
2023-04-13T10:44:09.833Z,68431.38
2023-04-13T10:46:38.546Z,68542.59
2023-04-13T10:49:07.214Z,68572.13
2023-04-13T10:51:41.102Z,68645.22
2023-04-13T10:54:09.658Z,68615.84
2023-04-13T10:56:36.911Z,68621.53
2023-04-13T10:59:04.513Z,68605.25
2023-04-13T11:01:32.057Z,68586.13
2023-04-13T11:04:05.295Z,68538.63
2023-04-13T11:06:40.071Z,68514.41
2023-04-13T11:09:07.934Z,68647.09
2023-04-13T11:11:36.487Z,68756.41
2023-04-13T11:14:03.859Z,68858.41
2023-04-13T11:16:31.367Z,68842.28
2023-04-13T11:19:04.933Z,68825.63
2023-04-13T11:21:31.897Z,68905.25
2023-04-13T11:24:02.614Z,68933.16
2023-04-13T11:26:34.234Z,68937.72
2023-04-13T11:29:03.631Z,68928.22
2023-04-13T11:31:40.481Z,68780.28
2023-04-13T11:34:14.202Z,68686.50
2023-04-13T11:36:42.238Z,68527.81
2023-04-13T11:39:10.661Z,68430.59
2023-04-13T11:41:41.750Z,68399.59
2023-04-13T11:44:11.213Z,68419.06
2023-04-13T11:46:38.382Z,68459.53
2023-04-13T11:49:05.528Z,68455.19
2023-04-13T11:51:32.914Z,68486.94
2023-04-13T11:54:01.044Z,68481.66
2023-04-13T11:56:28.030Z,68449.50
2023-04-13T11:58:55.329Z,68420.75
2023-04-13T12:01:26.288Z,68408.66
2023-04-13T12:04:08.314Z,68423.03
2023-04-13T12:06:44.497Z,68448.38
2023-04-13T12:09:15.688Z,68465.22
2023-04-13T12:11:49.766Z,68543.34
2023-04-13T12:19:26.262Z,68507.97
2023-04-13T12:21:56.738Z,68503.97
2023-04-13T12:24:38.661Z,68512.13
2023-04-13T12:29:39.739Z,68461.25
2023-04-13T12:32:14.573Z,68454.63
2023-04-13T12:34:45.034Z,68476.75
2023-04-13T12:37:12.209Z,68499.25
2023-04-13T12:39:39.221Z,68514.03
2023-04-13T12:42:06.502Z,68500.00
2023-04-13T12:44:34.528Z,68475.97
2023-04-13T12:47:02.071Z,68553.38
2023-04-13T12:49:29.972Z,68681.94
2023-04-13T12:51:59.419Z,68718.50
2023-04-13T12:54:26.308Z,68680.22
2023-04-13T12:56:53.277Z,68653.91
2023-04-13T12:59:23.161Z,68671.53
2023-04-13T13:01:50.588Z,68648.22
2023-04-13T13:04:17.826Z,68643.50
2023-04-13T13:06:44.795Z,68563.22
2023-04-13T13:09:12.042Z,68518.56
2023-04-13T13:11:38.980Z,68489.41
2023-04-13T13:14:06.272Z,68479.38
2023-04-13T13:16:33.270Z,68506.63
2023-04-13T13:19:00.241Z,68508.91
2023-04-13T13:21:27.175Z,68552.06
2023-04-13T13:23:55.306Z,68622.84
2023-04-13T13:26:25.107Z,68605.59
2023-04-13T13:28:55.744Z,68597.09
2023-04-13T13:31:22.751Z,68597.47
2023-04-13T13:33:55.424Z,68686.88
2023-04-13T13:36:22.508Z,68699.38
2023-04-13T13:38:52.428Z,68738.03
2023-04-13T13:41:23.849Z,68736.88
2023-04-13T13:43:50.948Z,68761.91
2023-04-13T13:46:18.292Z,68678.91
2023-04-13T13:48:48.316Z,68654.47
2023-04-13T13:51:37.406Z,68650.88
2023-04-13T13:54:06.836Z,68722.13
2023-04-13T13:56:33.774Z,68731.41
2023-04-13T13:59:01.269Z,68760.75
2023-04-13T14:01:28.635Z,68805.88
2023-04-13T14:04:01.642Z,68839.25
2023-04-13T14:06:29.701Z,68795.44
2023-04-13T14:08:56.570Z,68735.94
2023-04-13T14:11:23.559Z,68585.34
2023-04-13T14:13:50.447Z,68522.16
2023-04-13T14:16:17.415Z,68528.59
2023-04-13T14:18:52.931Z,68560.03
2023-04-13T14:21:21.721Z,68545.44
2023-04-13T14:23:49.816Z,68530.69
2023-04-13T14:26:16.971Z,68533.88
2023-04-13T14:28:44.272Z,68567.56
2023-04-13T14:31:11.527Z,68604.09
2023-04-13T14:33:38.467Z,68597.47
2023-04-13T14:36:05.524Z,68652.78
2023-04-13T14:38:34.539Z,68649.53
2023-04-13T14:41:01.861Z,68624.56
2023-04-13T14:43:28.927Z,68620.00
2023-04-13T14:45:55.867Z,68571.56
2023-04-13T14:48:23.864Z,68565.69
2023-04-13T14:50:50.846Z,68561.50
2023-04-13T14:53:17.820Z,68576.66
2023-04-13T14:55:45.986Z,68557.72
2023-04-13T14:58:12.926Z,68545.81
2023-04-13T15:00:40.224Z,68525.94
2023-04-13T15:03:11.344Z,68508.53
2023-04-13T15:05:42.110Z,68502.84
2023-04-13T15:08:11.444Z,68531.25
2023-04-13T15:10:39.141Z,68566.81
2023-04-13T15:13:07.248Z,68569.84
2023-04-13T15:15:35.232Z,68534.66
2023-04-13T15:18:03.292Z,68522.91
2023-04-13T15:20:30.632Z,68512.13
2023-04-13T15:22:58.329Z,68521.78
2023-04-13T15:25:25.860Z,68511.94
2023-04-13T15:27:58.009Z,68507.41
2023-04-13T15:30:26.529Z,68513.47
2023-04-13T15:32:55.306Z,68485.25
2023-04-13T15:35:23.011Z,68458.41
2023-04-13T15:37:51.479Z,68454.25
2023-04-13T15:40:19.573Z,68487.88
2023-04-13T15:42:46.508Z,68524.25
2023-04-13T15:45:13.589Z,68520.66
2023-04-13T15:47:40.731Z,68491.50
2023-04-13T15:50:09.142Z,68487.34
2023-04-13T15:52:37.164Z,68493.78
2023-04-13T15:55:04.432Z,68459.72
2023-04-13T15:57:31.332Z,68498.50
2023-04-13T15:59:58.706Z,68511.75
2023-04-13T16:02:26.306Z,68488.25
2023-04-13T16:04:54.241Z,68560.03
2023-04-13T16:07:21.557Z,68573.44
2023-04-13T16:09:51.353Z,68557.53
2023-04-13T16:12:18.489Z,68552.41
2023-04-13T16:14:45.585Z,68540.50
2023-04-13T16:17:14.776Z,68510.44
2023-04-13T16:19:46.611Z,68502.09
2023-04-13T16:22:25.173Z,68477.69
2023-04-13T16:24:55.114Z,68469.16
2023-04-13T16:27:22.426Z,68481.28
2023-04-13T16:29:49.375Z,68461.63
2023-04-13T16:32:16.287Z,68451.41
2023-04-13T16:34:49.080Z,68446.47
2023-04-13T16:37:16.307Z,68448.38
2023-04-13T16:39:44.740Z,68423.22
2023-04-13T16:42:12.325Z,68414.91
2023-04-13T16:44:39.285Z,68411.88
2023-04-13T16:47:06.317Z,68422.09
2023-04-13T16:49:37.165Z,68395.06
2023-04-13T16:52:07.350Z,68373.69
2023-04-13T16:54:37.694Z,68377.66
2023-04-13T16:57:05.226Z,68368.97
2023-04-13T16:59:32.312Z,68351.00
2023-04-13T17:01:59.346Z,68351.97
2023-04-13T17:04:29.256Z,68364.44
2023-04-13T17:07:02.726Z,68375.59
2023-04-13T17:09:29.613Z,68382.97
2023-04-13T17:11:56.681Z,68394.47
2023-04-13T17:14:24.299Z,68395.81
2023-04-13T17:16:51.897Z,68399.59
2023-04-13T17:19:19.235Z,68385.03
2023-04-13T17:21:46.472Z,68398.09
2023-04-13T17:24:13.413Z,68393.53
2023-04-13T17:26:40.444Z,68407.53
2023-04-13T17:29:07.708Z,68413.19
2023-04-13T17:31:34.707Z,68393.53
2023-04-13T17:34:01.654Z,68405.25
2023-04-13T17:36:28.628Z,68373.50
2023-04-13T17:38:55.563Z,68364.81
2023-04-13T17:41:22.462Z,68361.97
2023-04-13T17:43:49.401Z,68363.28
2023-04-13T17:46:16.391Z,68329.06
2023-04-13T17:48:43.300Z,68316.63
2023-04-13T17:51:11.804Z,68304.91
2023-04-13T17:53:38.984Z,68288.09
2023-04-13T17:56:06.123Z,68270.91
2023-04-13T17:58:34.184Z,68251.25
2023-04-13T18:01:11.334Z,68237.28
2023-04-13T18:03:39.006Z,68229.34
2023-04-13T18:06:06.704Z,68216.88
2023-04-13T18:08:33.717Z,68204.25
2023-04-13T18:11:00.807Z,68202.16
2023-04-13T18:13:28.165Z,68195.00
2023-04-13T18:15:55.615Z,68196.31
2023-04-13T18:18:25.627Z,68182.53
2023-04-13T18:20:52.908Z,68178.19
2023-04-13T18:23:23.993Z,68172.16
2023-04-13T18:25:52.138Z,68176.13
2023-04-13T18:28:19.238Z,68171.22
2023-04-13T18:30:46.235Z,68171.78
2023-04-13T18:33:13.216Z,68177.25
2023-04-13T18:35:44.292Z,68175.19
2023-04-13T18:38:11.561Z,68177.44
2023-04-13T18:40:39.792Z,68180.44
2023-04-13T18:43:06.982Z,68175.56
2023-04-13T18:45:33.978Z,68173.47
2023-04-13T18:48:01.283Z,68179.13
2023-04-13T18:50:29.280Z,68177.81
2023-04-13T18:52:56.354Z,68177.63
2023-04-13T18:55:27.170Z,68174.78
2023-04-13T18:57:54.697Z,68167.81
2023-04-13T19:00:22.202Z,68163.84
2023-04-13T19:02:52.367Z,68164.44
2023-04-13T19:05:19.742Z,68174.78
2023-04-13T19:07:59.489Z,68166.31
2023-04-13T19:10:26.971Z,68178.38
2023-04-13T19:12:54.065Z,68171.41
2023-04-13T19:15:22.110Z,68184.22
2023-04-13T19:17:52.293Z,68175.75
2023-04-13T19:20:21.393Z,68177.25
2023-04-13T19:22:48.762Z,68176.88
2023-04-13T19:25:16.042Z,68163.09
2023-04-13T19:27:45.253Z,68166.09
2023-04-13T19:30:13.678Z,68161.97
2023-04-13T19:32:41.873Z,68162.91
2023-04-13T19:35:10.552Z,68166.88
2023-04-13T19:37:38.207Z,68168.75
2023-04-13T19:40:09.810Z,68152.91
2023-04-13T19:42:37.380Z,68137.25
2023-04-13T19:45:04.925Z,68138.19
2023-04-13T19:47:32.042Z,68133.47
2023-04-13T19:49:59.909Z,68131.94
2023-04-13T19:52:27.421Z,68122.31
2023-04-13T19:54:54.408Z,68120.06
2023-04-13T19:57:21.500Z,68117.03
2023-04-13T19:59:48.605Z,68105.16
2023-04-13T20:02:15.539Z,68101.94
2023-04-13T20:04:44.148Z,68099.88
2023-04-13T20:07:11.186Z,68092.50
2023-04-13T20:09:38.110Z,68086.09
2023-04-13T20:12:05.654Z,68085.91
2023-04-13T20:14:32.786Z,68077.59
2023-04-13T20:16:59.758Z,68064.63
2023-04-13T20:19:26.653Z,68057.44
2023-04-13T20:21:54.323Z,68059.13
2023-04-13T20:24:21.483Z,68063.66
2023-04-13T20:26:48.918Z,68074.22
2023-04-13T20:29:21.790Z,68082.16
2023-04-13T20:31:48.993Z,68075.34
2023-04-13T20:34:16.118Z,68056.31
2023-04-13T20:36:43.217Z,68044.41
2023-04-13T20:39:10.929Z,68040.28
2023-04-13T20:41:39.066Z,68036.31
2023-04-13T20:44:09.720Z,68037.09
2023-04-13T20:46:41.851Z,68056.66
2023-04-13T20:49:11.910Z,68064.25
2023-04-13T20:51:39.787Z,68059.91
2023-04-13T20:54:06.673Z,68058.19
2023-04-13T20:56:33.598Z,68062.16
2023-04-13T20:59:01.537Z,68071.38
2023-04-13T21:01:30.372Z,68061.03
2023-04-13T21:03:58.595Z,68086.09
2023-04-13T21:06:27.200Z,68084.97
2023-04-13T21:08:54.939Z,68067.81
2023-04-13T21:11:22.106Z,68054.41
2023-04-13T21:13:49.218Z,68048.97
2023-04-13T21:16:16.441Z,68041.41
2023-04-13T21:18:43.524Z,68037.25
2023-04-13T21:21:10.467Z,68026.16
2023-04-13T21:23:37.742Z,67985.63
2023-04-13T21:26:04.890Z,67954.53
2023-04-13T21:28:31.796Z,67944.72
2023-04-13T21:30:58.925Z,67944.72
2023-04-13T21:33:25.963Z,67949.81
2023-04-13T21:35:52.994Z,67953.19
2023-04-13T21:38:19.883Z,67952.63
2023-04-13T21:40:47.196Z,67948.31
2023-04-13T21:43:17.062Z,67954.91
2023-04-13T21:45:44.121Z,67958.28
2023-04-13T21:48:11.255Z,67957.72
2023-04-13T21:50:40.060Z,67964.13
2023-04-13T21:53:08.274Z,67976.78
2023-04-13T21:55:36.751Z,67998.81
2023-04-13T21:58:03.738Z,68011.44
2023-04-13T22:00:30.855Z,68020.50
2023-04-13T22:03:02.013Z,68012.00
2023-04-13T22:05:29.683Z,68016.53
2023-04-13T22:07:57.014Z,67996.94
2023-04-13T22:10:24.043Z,68006.34
2023-04-13T22:12:53.409Z,68009.56
2023-04-13T22:15:20.455Z,68010.88
2023-04-13T22:17:50.459Z,68006.91
2023-04-13T22:20:17.634Z,68005.78
2023-04-13T22:22:45.912Z,67997.13
2023-04-13T22:25:13.005Z,67995.59
2023-04-13T22:27:39.918Z,67991.06
2023-04-13T22:30:07.355Z,67989.75
2023-04-13T22:32:34.548Z,67983.91
2023-04-13T22:35:01.603Z,67987.09
2023-04-13T22:37:31.073Z,67984.47
2023-04-13T22:39:59.333Z,67977.16
2023-04-13T22:42:26.815Z,67973.75
2023-04-13T22:44:54.129Z,67985.41
2023-04-13T22:47:23.332Z,67986.56
2023-04-13T22:49:51.053Z,67983.53
2023-04-13T22:52:18.661Z,67977.16
2023-04-13T22:54:46.958Z,67974.13
2023-04-13T22:57:14.075Z,67966.75
2023-04-13T22:59:41.079Z,67959.03
2023-04-13T23:02:08.090Z,67963.75
2023-04-13T23:04:36.338Z,67959.03
2023-04-13T23:07:03.739Z,67968.66
2023-04-13T23:09:30.885Z,67971.84
2023-04-13T23:12:00.505Z,67964.50
2023-04-13T23:14:29.914Z,67961.13
2023-04-13T23:17:00.191Z,67957.72
2023-04-13T23:19:27.267Z,67960.75
2023-04-13T23:21:57.338Z,67963.94
2023-04-13T23:24:24.348Z,67965.25
2023-04-13T23:26:54.268Z,67973.53
2023-04-13T23:29:22.260Z,67971.69
2023-04-13T23:31:49.713Z,67975.44
2023-04-13T23:34:16.955Z,67968.47
2023-04-13T23:36:47.399Z,67968.66
2023-04-13T23:39:14.476Z,67967.53
2023-04-13T23:41:41.538Z,67960.38
2023-04-13T23:44:10.849Z,67961.28
2023-04-13T23:46:38.742Z,67964.69
2023-04-13T23:49:05.860Z,67957.91
2023-04-13T23:51:36.534Z,67961.66
2023-04-13T23:54:06.110Z,67960.38
2023-04-13T23:56:35.325Z,67945.69
2023-04-13T23:59:02.634Z,67921.38
